Latest Weather Observations for Edithburgh

IDS60801

Issued at 9:21 pm CDT Thursday 17 January 2019 (issued every 10 minutes, with the page automatically refreshed every 10 minutes)

About weather observations | Map of weather stations | Latest weather observations for SA | Other Formats
Station Details ID: 022046 Name: EDITHBURGH Lat: -35.11 Lon: 137.74 Height: 6.0 m
Data from the previous 72 hours. | See also: Recent months at Edithburgh
Date/Time
CDT
Temp
°C
App
Temp
°C
Dew
Point
°C
Rel
Hum
%
Delta-T
°C
Wind Press
QNH
hPa
Press
MSL
hPa
Rain since
9am
mm
Dir  Spd
km/h
Gust
km/h
Spd
kts
Gust
kts
17/09:00pm 23.8 26.4 18.4 72 3.4 NE 2 4 1 2 1007.2 1007.2 0.0
17/08:30pm 24.2 26.1 18.5 70 3.6 ENE 6 9 3 5 1006.9 1006.9 0.0
17/08:00pm 24.9 26.1 17.4 63 4.7 SE 7 11 4 6 1006.0 1006.0 0.0
17/07:30pm 25.7 26.8 16.7 57 5.6 SSE 6 9 3 5 1006.6 1006.6 0.0
17/07:00pm 26.9 25.4 15.2 48 7.1 SSW 17 20 9 11 1006.6 1006.6 0.0
17/06:30pm 27.0 26.5 15.9 50 6.8 SSW 13 17 7 9 1006.9 1006.9 0.0
17/06:00pm 26.0 26.0 17.2 58 5.5 SSW 13 19 7 10 1007.3 1007.3 0.0
17/05:30pm 27.0 26.6 16.1 51 6.7 SSW 13 17 7 9 1007.4 1007.4 0.0
17/05:00pm 25.9 25.8 16.9 57 5.6 SSW 13 17 7 9 1007.5 1007.5 0.0
17/04:30pm 26.9 25.4 16.2 52 6.6 SW 19 26 10 14 1007.7 1007.7 0.0
17/04:00pm 29.8 27.6 14.3 38 9.4 SSW 19 26 10 14 1007.5 1007.5 0.0
17/03:30pm 29.3 27.1 14.9 41 8.8 SW 20 28 11 15 1007.7 1007.7 0.0
17/03:00pm 27.7 26.1 16.6 50 6.9 SW 20 28 11 15 1008.2 1008.2 0.0
17/02:30pm 26.2 23.3 17.1 57 5.7 SW 28 35 15 19 1008.2 1008.2 0.0
17/02:00pm 28.8 27.3 16.4 47 7.7 SSW 19 26 10 14 1008.2 1008.2 0.0
17/01:30pm 29.2 29.4 16.8 47 7.8 NNE 11 19 6 10 1007.2 1007.2 0.0
17/01:00pm 29.7 29.3 16.2 44 8.4 NNE 13 20 7 11 1007.2 1007.2 0.0
17/12:30pm 27.9 28.0 17.4 52 6.6 NNE 13 19 7 10 1007.1 1007.1 0.0
17/12:00pm 27.6 27.7 17.4 53 6.4 NNE 13 22 7 12 1007.1 1007.1 0.0
17/11:30am 28.1 27.8 17.3 52 6.8 NNE 15 24 8 13 1006.8 1006.8 0.0
17/11:00am 30.0 29.5 16.0 42 8.7 NNE 13 19 7 10 1007.2 1007.2 0.0
17/10:30am 28.0 28.0 16.2 48 7.3 NNE 11 19 6 10 1007.5 1007.5 0.0
17/10:00am 27.9 28.0 16.5 50 7.1 NNE 11 17 6 9 1007.7 1007.7 0.0
17/09:30am 28.6 29.1 15.6 45 8.0 NNE 7 13 4 7 1008.2 1008.2 0.0
17/09:00am 26.3 26.8 16.6 55 6.0 NNE 9 15 5 8 1008.1 1008.1 0.0
17/08:30am 26.8 27.2 14.7 47 7.3 NNW 6 9 3 5 1008.5 1008.5 0.0
17/08:00am 25.5 25.3 15.6 54 6.0 N 11 15 6 8 1008.0 1008.0 0.0
17/07:30am 24.1 25.2 16.6 63 4.6 N 6 9 3 5 1008.1 1008.1 0.0
17/07:00am 23.5 25.6 17.2 67 3.9 NNE 2 7 1 4 1007.4 1007.4 0.0
17/06:30am 22.8 24.0 16.9 69 3.6 N 6 7 3 4 1007.1 1007.1 0.0
17/06:00am 23.1 25.1 16.9 68 3.8 NNW 2 6 1 3 1007.8 1007.8 0.0
17/05:30am 22.7 24.0 17.5 72 3.2 NNE 7 9 4 5 1006.9 1006.9 0.0
17/05:00am 22.7 24.2 17.5 72 3.2 N 6 9 3 5 1006.9 1006.9 0.0
17/04:30am 22.2 23.6 18.7 80 2.2 NE 9 15 5 8 1006.6 1006.6 0.0
17/04:00am 22.3 22.6 18.7 80 2.3 NE 15 19 8 10 1007.6 1007.6 0.0
17/03:30am 22.7 23.1 18.1 75 2.9 E 13 19 7 10 1008.1 1008.1 0.0
17/03:00am 23.1 24.6 17.6 71 3.4 SSE 6 7 3 4 1008.4 1008.4 0.0
17/02:30am 23.4 24.5 15.6 61 4.7 SSE 4 11 2 6 1008.5 1008.5 0.0
17/02:00am 23.1 23.2 16.6 67 4.0 WSW 11 15 6 8 1008.6 1008.6 0.0
17/01:30am 22.6 21.5 17.3 72 3.3 W 19 30 10 16 1009.1 1009.1 0.0
17/01:00am 22.5 21.8 16.4 68 3.7 WSW 15 24 8 13 1009.1 1009.1 0.0
17/12:30am 22.7 22.3 16.3 67 3.9 WSW 13 22 7 12 1009.2 1009.2 0.0
17/12:08am 23.4 22.4 15.6 61 4.7 NW 15 46 8 25 1008.8 1008.8 0.0
17/12:00am 23.6 25.3 18.0 71 3.5 N 6 9 3 5 1007.5 1007.5 0.0
 
Date/Time
CDT
Temp
°C
App
Temp
°C
Dew
Point
°C
Rel
Hum
%
Delta-T
°C
Wind Press
QNH
hPa
Press
MSL
hPa
Rain since
9am
mm
Dir  Spd
km/h
Gust
km/h
Spd
kts
Gust
kts
16/11:30pm 23.1 23.9 16.4 66 4.1 ESE 7 11 4 6 1006.7 1006.7 0.0
16/11:00pm 24.1 23.1 14.7 55 5.6 SW 13 20 7 11 1007.2 1007.2 0.0
16/10:30pm 22.4 20.9 16.7 70 3.5 SSW 20 28 11 15 1007.3 1007.3 0.0
16/10:00pm 21.7 19.6 17.1 75 2.8 S 24 33 13 18 1006.7 1006.7 0.0
16/09:30pm 21.4 20.6 17.9 80 2.2 S 19 24 10 13 1007.0 1007.0 0.0
16/09:00pm 21.5 20.7 18.0 80 2.2 S 19 24 10 13 1007.3 1007.3 0.0
16/08:30pm 21.5 20.5 18.0 80 2.2 S 20 28 11 15 1006.7 1006.7 0.0
16/08:00pm 21.5 19.8 18.0 80 2.2 S 24 33 13 18 1006.5 1006.5 0.0
16/07:30pm 22.0 20.5 18.5 80 2.2 S 24 33 13 18 1006.3 1006.3 0.0
16/07:00pm 23.4 21.3 18.1 72 3.3 SSW 26 39 14 21 1006.5 1006.5 0.0
16/06:30pm 24.1 23.7 18.9 72 3.3 SSW 19 26 10 14 1006.0 1006.0 0.0
16/06:12pm 24.7 25.2 19.2 71 3.5 SSW 15 30 8 16 1005.3 1005.3 0.0
16/06:00pm 29.9 29.7 11.9 33 10.5 SW 4 7 2 4 1005.1 1005.1 0.0
16/05:30pm 29.2 28.9 14.3 40 9.0 ENE 9 13 5 7 1004.7 1004.7 0.0
16/05:00pm 30.0 29.5 13.7 37 9.8 E 9 13 5 7 1004.8 1004.8 0.0
16/04:30pm 30.8 30.1 15.3 39 9.6 ESE 13 17 7 9 1004.8 1004.8 0.0
16/04:00pm 27.3 27.0 18.2 57 5.8 SE 17 22 9 12 1005.1 1005.1 0.0
16/03:30pm 28.8 28.1 16.3 46 7.8 SE 15 19 8 10 1005.5 1005.5 0.0
16/03:00pm 27.3 26.8 16.9 53 6.5 SE 15 20 8 11 1005.6 1005.6 0.0
16/02:30pm 25.3 25.2 17.8 63 4.7 SE 15 19 8 10 1006.4 1006.4 0.0
16/02:00pm 25.0 24.3 17.3 62 4.8 SE 17 24 9 13 1006.7 1006.7 0.0
16/01:30pm 23.1 22.6 18.7 76 2.8 SSE 19 24 10 13 1007.7 1007.7 0.0
16/01:00pm 24.2 22.9 18.2 69 3.8 SSE 22 30 12 16 1007.8 1007.8 0.0
16/12:30pm 24.7 22.9 17.9 66 4.3 SSE 24 33 13 18 1008.1 1008.1 0.0
16/12:00pm 27.4 25.4 15.0 46 7.5 SSE 19 30 10 16 1008.0 1008.0 0.0
16/11:30am 27.6 26.7 13.8 42 8.2 ENE 11 17 6 9 1008.5 1008.5 0.0
16/11:00am 24.9 24.1 15.1 54 5.9 ENE 13 19 7 10 1008.3 1008.3 0.0
16/10:30am 23.4 24.5 16.7 66 4.1 SSE 6 9 3 5 1009.2 1009.2 0.0
16/10:00am 23.9 24.8 16.7 64 4.4 ESE 7 13 4 7 1008.8 1008.8 0.0
16/09:30am 23.6 24.0 16.4 64 4.4 SE 9 13 5 7 1009.4 1009.4 0.0
16/09:00am 22.5 24.3 17.5 73 3.1 NE 4 9 2 5 1009.8 1009.8 0.0
16/08:30am 21.8 20.8 16.7 73 3.1 SSE 17 22 9 12 1008.5 1008.5 0.0
16/08:00am 21.4 21.2 17.7 79 2.3 ESE 15 20 8 11 1009.3 1009.3 0.0
16/07:30am 20.7 20.5 18.5 87 1.4 SE 17 24 9 13 1008.8 1008.8 0.0
16/07:00am 20.4 19.8 18.5 89 1.2 SSE 19 28 10 15 1008.9 1008.9 0.0
16/06:30am 20.3 19.5 18.4 89 1.2 S 20 24 11 13 1009.4 1009.4 0.0
16/06:00am 20.1 18.9 18.5 90 1.0 S 22 28 12 15 1008.9 1008.9 0.0
16/05:30am 20.4 20.2 18.6 89 1.1 S 17 22 9 12 1008.9 1008.9 0.0
16/05:00am 20.2 19.8 18.8 92 0.9 S 19 26 10 14 1008.3 1008.3 0.0
16/04:30am 20.2 20.0 18.6 90 1.0 SSE 17 20 9 11 1007.6 1007.6 0.0
16/04:00am 20.2 19.2 18.8 92 0.9 SSE 22 28 12 15 1007.4 1007.4 0.0
16/03:30am 20.1 19.4 18.7 92 0.9 SSE 20 28 11 15 1007.6 1007.6 0.0
16/03:00am 20.0 18.9 18.7 92 0.8 SSE 22 28 12 15 1007.8 1007.8 0.0
16/02:30am 20.0 18.9 18.6 92 0.9 S 22 30 12 16 1008.5 1008.5 0.0
16/02:00am 20.2 18.2 18.4 89 1.1 SSE 26 33 14 18 1008.6 1008.6 0.0
16/01:30am 20.3 17.9 18.2 88 1.3 S 28 37 15 20 1009.0 1009.0 0.0
16/01:00am 20.4 18.4 17.5 83 1.8 S 24 32 13 17 1009.4 1009.4 0.0
16/12:30am 20.8 18.3 17.0 79 2.3 S 26 33 14 18 1009.7 1009.7 0.0
16/12:00am 21.0 18.3 16.5 75 2.7 S 26 35 14 19 1009.9 1009.9 0.0
 
Date/Time
CDT
Temp
°C
App
Temp
°C
Dew
Point
°C
Rel
Hum
%
Delta-T
°C
Wind Press
QNH
hPa
Press
MSL
hPa
Rain since
9am
mm
Dir  Spd
km/h
Gust
km/h
Spd
kts
Gust
kts
15/11:30pm 20.9 19.5 17.1 79 2.3 S 20 28 11 15 1010.3 1010.3 0.0
15/11:00pm 21.0 18.6 17.4 80 2.2 S 26 35 14 19 1010.3 1010.3 0.0
15/10:30pm 21.3 18.2 17.6 79 2.3 S 30 41 16 22 1010.4 1010.4 0.0
15/10:00pm 21.9 18.7 16.3 70 3.4 S 28 37 15 20 1009.8 1009.8 0.0
15/09:30pm 22.4 19.2 16.3 68 3.7 S 28 39 15 21 1009.7 1009.7 0.0
15/09:00pm 22.5 19.5 16.8 70 3.5 SSW 28 39 15 21 1009.6 1009.6 0.0
15/08:30pm 22.9 19.8 17.4 71 3.4 S 30 39 16 21 1009.2 1009.2 0.0
15/08:00pm 24.3 22.9 17.9 67 4.0 SSE 22 33 12 18 1007.9 1007.9 0.0
15/07:30pm 26.3 25.4 17.7 59 5.4 S 19 28 10 15 1008.3 1008.3 0.0
15/07:00pm 30.6 27.7 12.2 32 10.8 SSW 19 37 10 20 1008.3 1008.3 0.0
15/06:59pm 31.4 28.2 10.0 26 12.2 SSW 17 37 9 20 1008.3 1008.3 0.0
15/06:30pm 36.8 33.8 -4.8 7 19.3 SW 2 6 1 3 1007.7 1007.7 0.0
15/06:00pm 33.6 32.2 7.4 19 14.5 NE 4 6 2 3 1007.2 1007.2 0.0
15/05:30pm 36.0 31.8 -7.4 6 19.2 E 7 11 4 6 1007.4 1007.4 0.0
15/05:00pm 35.5 30.9 -13.6 4 19.5 SE 7 11 4 6 1007.7 1007.7 0.0
15/04:30pm 34.5 31.7 6.9 18 15.2 ENE 11 13 6 7 1007.6 1007.6 0.0
15/04:00pm 33.1 30.8 5.7 18 14.7 SE 7 11 4 6 1008.1 1008.1 0.0
15/03:30pm 31.5 29.0 8.2 23 12.9 SE 11 15 6 8 1008.8 1008.8 0.0
15/03:00pm 31.5 29.2 10.4 27 12.1 SE 13 19 7 10 1008.9 1008.9 0.0
15/02:30pm 30.5 27.9 10.6 29 11.4 SE 15 19 8 10 1009.0 1009.0 0.0
15/02:00pm 30.6 27.8 12.5 33 10.7 S 19 24 10 13 1009.6 1009.6 0.0
15/01:30pm 28.4 25.9 14.1 41 8.6 SSE 20 32 11 17 1009.9 1009.9 0.0
15/01:00pm 29.4 26.3 13.5 37 9.5 S 22 30 12 16 1010.3 1010.3 0.0
15/12:30pm 30.5 27.7 12.6 33 10.6 S 19 26 10 14 1010.4 1010.4 0.0
15/12:00pm 28.6 26.2 12.8 37 9.3 S 17 24 9 13 1010.5 1010.5 0.0
15/11:30am 27.7 23.7 12.9 40 8.7 SSW 26 33 14 18 1010.7 1010.7 0.0
15/11:00am 27.8 26.0 13.2 40 8.6 SSE 15 19 8 10 1009.3 1009.3 0.0
15/10:30am 27.0 25.4 12.8 41 8.3 SSE 13 17 7 9 1009.1 1009.1 0.0
15/10:00am 25.2 24.7 14.9 52 6.2 SSE 11 15 6 8 1009.1 1009.1 0.0
15/09:30am 25.3 24.0 13.6 48 6.9 S 13 17 7 9 1009.1 1009.1 0.0
15/09:00am 24.6 24.5 14.9 54 5.8 S 9 13 5 7 1008.8 1008.8 0.0
15/08:30am 22.7 22.3 18.1 75 2.9 SSW 17 22 9 12 1009.0 1009.0 0.0
15/08:00am 23.6 24.0 15.3 59 5.0 S 7 11 4 6 1008.7 1008.7 0.0
15/07:30am 23.5 24.4 16.1 63 4.5 S 6 9 3 5 1008.6 1008.6 0.0
15/07:00am 21.1 22.0 16.5 75 2.8 ESE 7 11 4 6 1008.1 1008.1 0.0
15/06:30am 21.0 21.6 16.7 76 2.6 ENE 9 11 5 6 1007.8 1007.8 0.0
15/06:00am 18.7 19.0 15.1 79 2.1 SSW 7 11 4 6 1008.5 1008.5 0.0
15/05:30am 18.7 18.0 15.5 81 1.9 SW 13 15 7 8 1008.8 1008.8 0.0
15/05:00am 18.7 19.2 16.5 87 1.3 SW 9 11 5 6 1008.4 1008.4 0.0
15/04:30am 18.0 18.0 16.2 89 1.1 SW 11 17 6 9 1008.0 1008.0 0.0
15/04:00am 17.3 16.9 15.2 87 1.2 WSW 11 17 6 9 1008.0 1008.0 0.0
15/03:30am 18.6 19.4 15.9 84 1.6 NNE 6 9 3 5 1007.8 1007.8 0.0
15/03:00am 19.7 20.8 16.7 83 1.8 S 6 7 3 4 1007.8 1007.8 0.0
15/02:30am 20.3 22.1 18.2 88 1.3 SSE 6 7 3 4 1007.8 1007.8 0.0
15/02:00am 19.9 21.1 18.3 90 1.0 S 9 11 5 6 1008.1 1008.1 0.0
15/01:30am 18.8 19.2 17.2 90 1.0 SSW 11 13 6 7 1008.7 1008.7 0.0
15/01:00am 17.6 17.7 15.6 88 1.2 SSW 9 13 5 7 1009.1 1009.1 0.0
15/12:30am 19.2 19.0 15.7 80 2.1 SW 11 15 6 8 1009.4 1009.4 0.0
15/12:00am 19.7 20.0 14.4 71 3.1 N 6 6 3 3 1009.2 1009.2 0.0
 
Date/Time
CDT
Temp
°C
App
Temp
°C
Dew
Point
°C
Rel
Hum
%
Delta-T
°C
Wind Press
QNH
hPa
Press
MSL
hPa
Rain since
9am
mm
Dir  Spd
km/h
Gust
km/h
Spd
kts
Gust
kts
14/11:30pm 21.9 23.0 15.7 68 3.7 NNE 4 6 2 3 1009.5 1009.5 0.0
14/11:00pm 22.9 23.9 16.3 66 4.0 SSE 6 9 3 5 1009.6 1009.6 0.0
14/10:30pm 22.2 23.2 16.8 71 3.3 SSE 7 9 4 5 1009.7 1009.7 0.0
14/10:00pm 22.7 22.5 16.8 69 3.6 S 13 15 7 8 1009.7 1009.7 0.0
14/09:30pm 23.4 22.9 15.8 62 4.6 SE 13 19 7 10 1009.3 1009.3 0.0

Other Formats:

Comma delimited format used in spreadsheet applications
http://www.bom.gov.au/fwo/IDS60801/IDS60801.94809.axf

JavaScript Object Notation format (JSON) in row-major order
http://www.bom.gov.au/fwo/IDS60801/IDS60801.94809.json